Time;durP1;ratioP1;P1;durP2;ratioP2;P2;SDS_P1;SDS_P2;PMS_P1;PMS_P2;Temp;Humidity;BMP_temperature;BMP_pressure;BME280_temperature;BME280_humidity;BME280_pressure;Samples;Min_cycle;Max_cycle;Signal;HPM_P1;HPM_P2
2023/06/16 00:01:15;;;;;;;2.60;2.50;;;;;;;;;;5085901;27;100230;-72
2023/06/16 00:03:43;;;;;;;9.32;3.00;;;;;;;;;;5080868;27;98144;-74
2023/06/16 00:06:13;;;;;;;4.25;2.72;;;;;;;;;;5071339;27;99264;-73
2023/06/16 00:08:44;;;;;;;4.85;3.05;;;;;;;;;;5090952;27;100078;-74
2023/06/16 00:11:11;;;;;;;3.15;2.95;;;;;;;;;;5092051;27;98299;-72
2023/06/16 00:13:38;;;;;;;12.30;3.00;;;;;;;;;;5074232;27;99443;-72
2023/06/16 00:16:05;;;;;;;5.03;2.92;;;;;;;;;;5075293;27;99427;-74
2023/06/16 00:18:31;;;;;;;3.97;3.08;;;;;;;;;;5072353;27;99476;-74
2023/06/16 00:21:01;;;;;;;4.30;3.38;;;;;;;;;;5085248;27;98920;-74
2023/06/16 00:23:28;;;;;;;9.45;3.20;;;;;;;;;;5093073;27;98197;-74
2023/06/16 00:25:55;;;;;;;6.75;3.30;;;;;;;;;;5093504;27;99672;-74
2023/06/16 00:28:22;;;;;;;9.25;3.45;;;;;;;;;;5091578;27;99026;-73
2023/06/16 00:30:48;;;;;;;4.40;3.00;;;;;;;;;;5073784;27;98842;-73
2023/06/16 00:33:15;;;;;;;3.67;3.38;;;;;;;;;;5053902;27;98878;-74
2023/06/16 00:35:43;;;;;;;6.45;3.15;;;;;;;;;;5070360;27;98898;-73
2023/06/16 00:38:10;;;;;;;6.00;3.00;;;;;;;;;;5091933;27;98768;-73
2023/06/16 00:40:37;;;;;;;6.28;3.20;;;;;;;;;;5092567;27;98844;-73
2023/06/16 00:43:04;;;;;;;7.53;3.67;;;;;;;;;;5091859;27;98153;-73
2023/06/16 00:45:30;;;;;;;3.05;2.85;;;;;;;;;;5090861;27;98335;-73
2023/06/16 00:47:57;;;;;;;6.53;3.13;;;;;;;;;;5073193;27;100177;-73
2023/06/16 00:50:25;;;;;;;3.60;3.30;;;;;;;;;;5073429;27;98748;-73
2023/06/16 00:52:52;;;;;;;8.88;3.20;;;;;;;;;;5091037;27;98712;-73
2023/06/16 00:55:21;;;;;;;4.38;3.22;;;;;;;;;;5073157;27;98873;-73
2023/06/16 00:57:52;;;;;;;3.28;3.08;;;;;;;;;;5075284;27;98196;-73
2023/06/16 01:00:20;;;;;;;3.50;3.22;;;;;;;;;;5052398;27;101289;-73
2023/06/16 01:02:47;;;;;;;3.38;3.15;;;;;;;;;;5073175;27;98156;-73
2023/06/16 01:05:19;;;;;;;3.47;3.10;;;;;;;;;;5091805;27;99789;-74
2023/06/16 01:07:48;;;;;;;4.55;3.25;;;;;;;;;;5092043;27;98829;-73
2023/06/16 01:10:23;;;;;;;3.45;3.17;;;;;;;;;;5071958;27;99907;-72
2023/06/16 01:12:54;;;;;;;3.63;3.10;;;;;;;;;;5071899;27;98401;-73
2023/06/16 01:15:22;;;;;;;3.67;3.33;;;;;;;;;;5052825;27;101183;-73
2023/06/16 01:17:54;;;;;;;5.40;3.03;;;;;;;;;;5071350;27;97962;-73
2023/06/16 01:20:20;;;;;;;3.27;2.97;;;;;;;;;;5064037;27;99246;-73
2023/06/16 01:22:47;;;;;;;6.70;3.75;;;;;;;;;;5074142;27;98196;-73
2023/06/16 01:25:14;;;;;;;8.60;3.88;;;;;;;;;;5075086;27;98482;-74
2023/06/16 01:27:47;;;;;;;4.85;3.67;;;;;;;;;;5076514;27;101558;-73
2023/06/16 01:30:15;;;;;;;7.35;3.47;;;;;;;;;;5093182;27;98876;-73
2023/06/16 01:32:52;;;;;;;3.42;3.13;;;;;;;;;;5092469;27;98768;-73
2023/06/16 01:35:20;;;;;;;3.53;3.22;;;;;;;;;;5084467;27;99841;-73
2023/06/16 01:37:49;;;;;;;7.88;3.53;;;;;;;;;;5077900;27;98198;-73
2023/06/16 01:40:16;;;;;;;4.43;3.47;;;;;;;;;;5091869;27;98136;-74
2023/06/16 01:42:44;;;;;;;3.53;3.05;;;;;;;;;;5095387;27;98678;-73
2023/06/16 01:45:11;;;;;;;8.82;4.07;;;;;;;;;;5082761;27;98291;-74
2023/06/16 01:47:38;;;;;;;12.82;3.97;;;;;;;;;;5070842;27;98679;-74
2023/06/16 01:50:05;;;;;;;7.10;3.60;;;;;;;;;;5052466;27;98229;-74
2023/06/16 01:52:31;;;;;;;3.42;3.13;;;;;;;;;;5070762;27;98413;-73
2023/06/16 01:54:58;;;;;;;11.70;3.53;;;;;;;;;;5052761;27;101596;-73
2023/06/16 01:57:26;;;;;;;7.10;3.80;;;;;;;;;;5072509;27;98629;-73
2023/06/16 01:59:56;;;;;;;7.63;3.50;;;;;;;;;;5069490;27;98428;-73
2023/06/16 02:02:26;;;;;;;6.53;2.83;;;;;;;;;;5080967;27;98803;-73
2023/06/16 02:04:54;;;;;;;4.57;3.50;;;;;;;;;;5095098;27;98468;-73
2023/06/16 02:07:21;;;;;;;3.20;2.90;;;;;;;;;;5075446;27;101788;-74
2023/06/16 02:09:49;;;;;;;4.80;3.55;;;;;;;;;;5095320;27;98213;-73
2023/06/16 02:12:16;;;;;;;5.18;3.38;;;;;;;;;;5080128;27;100162;-74
2023/06/16 02:14:44;;;;;;;3.88;3.58;;;;;;;;;;5073431;27;98850;-73
2023/06/16 02:17:12;;;;;;;8.02;3.67;;;;;;;;;;5074260;27;99141;-74
2023/06/16 02:19:39;;;;;;;8.35;3.72;;;;;;;;;;5085597;27;98521;-74
2023/06/16 02:22:05;;;;;;;5.10;3.40;;;;;;;;;;5096206;27;98874;-73
2023/06/16 02:24:32;;;;;;;3.50;3.20;;;;;;;;;;5076565;27;98423;-74
2023/06/16 02:26:59;;;;;;;8.20;4.03;;;;;;;;;;5077931;27;99797;-73
2023/06/16 02:29:25;;;;;;;9.05;3.63;;;;;;;;;;5074941;27;98392;-74
2023/06/16 02:31:52;;;;;;;7.80;3.95;;;;;;;;;;5095166;27;99330;-73
2023/06/16 02:34:20;;;;;;;6.32;3.80;;;;;;;;;;5093689;27;99938;-74
2023/06/16 02:36:47;;;;;;;4.70;3.67;;;;;;;;;;5081508;27;98176;-73
2023/06/16 02:39:14;;;;;;;4.45;3.40;;;;;;;;;;5073072;27;99484;-73
2023/06/16 02:41:41;;;;;;;7.30;4.43;;;;;;;;;;5073344;27;98716;-74
2023/06/16 02:44:07;;;;;;;3.42;3.13;;;;;;;;;;5055354;27;98374;-73
2023/06/16 02:46:33;;;;;;;10.93;4.70;;;;;;;;;;5056307;27;101093;-74
2023/06/16 02:49:00;;;;;;;4.88;4.15;;;;;;;;;;5057586;27;102813;-74
2023/06/16 02:51:27;;;;;;;12.88;4.22;;;;;;;;;;5056096;27;98644;-73
2023/06/16 02:53:54;;;;;;;4.97;3.60;;;;;;;;;;5069611;27;100121;-73
2023/06/16 02:56:23;;;;;;;4.10;3.70;;;;;;;;;;5066722;27;98135;-73
2023/06/16 02:58:50;;;;;;;4.40;4.10;;;;;;;;;;5072563;27;100759;-74
2023/06/16 03:01:17;;;;;;;9.90;4.13;;;;;;;;;;5054703;27;98893;-74
2023/06/16 03:04:01;;;;;;;4.90;4.40;;;;;;;;;;5053841;27;98836;-74
2023/06/16 03:06:46;;;;;;;4.07;3.70;;;;;;;;;;5055014;27;99332;-73
2023/06/16 03:09:27;;;;;;;4.00;3.55;;;;;;;;;;5058100;27;101503;-73
2023/06/16 03:11:54;;;;;;;4.20;3.90;;;;;;;;;;5055193;27;99822;-73
2023/06/16 03:14:22;;;;;;;4.55;4.10;;;;;;;;;;5054816;27;100924;-73
2023/06/16 03:16:50;;;;;;;7.95;3.58;;;;;;;;;;5053862;27;98407;-74
2023/06/16 03:19:18;;;;;;;5.68;4.00;;;;;;;;;;5054689;27;98436;-73
2023/06/16 03:21:44;;;;;;;4.40;4.00;;;;;;;;;;5073522;27;98785;-73
2023/06/16 03:24:13;;;;;;;4.28;3.90;;;;;;;;;;5053778;27;98275;-73
2023/06/16 03:26:39;;;;;;;4.43;3.92;;;;;;;;;;5077401;27;98686;-74
2023/06/16 03:29:18;;;;;;;6.97;3.60;;;;;;;;;;5062505;27;101654;-73
2023/06/16 03:31:47;;;;;;;8.95;4.57;;;;;;;;;;5057369;27;98420;-74
2023/06/16 03:34:16;;;;;;;4.72;3.83;;;;;;;;;;5054283;27;101885;-74
2023/06/16 03:36:55;;;;;;;6.40;3.97;;;;;;;;;;5065646;27;98367;-74
2023/06/16 03:39:27;;;;;;;5.38;3.95;;;;;;;;;;5072892;27;99612;-73
2023/06/16 03:41:54;;;;;;;5.50;3.92;;;;;;;;;;5074715;27;101731;-74
2023/06/16 03:44:20;;;;;;;4.53;4.07;;;;;;;;;;5073326;27;98259;-73
2023/06/16 03:46:47;;;;;;;4.47;3.90;;;;;;;;;;5075864;27;99258;-73
2023/06/16 03:49:14;;;;;;;6.57;4.18;;;;;;;;;;5074308;27;101057;-73
2023/06/16 03:51:42;;;;;;;6.90;4.05;;;;;;;;;;5075359;27;98294;-73
2023/06/16 03:54:11;;;;;;;3.95;3.75;;;;;;;;;;5068213;27;100732;-73
2023/06/16 03:56:38;;;;;;;6.32;4.05;;;;;;;;;;5071707;27;98424;-73
2023/06/16 03:59:05;;;;;;;3.88;3.58;;;;;;;;;;5076853;27;99252;-74
2023/06/16 04:01:32;;;;;;;4.45;3.83;;;;;;;;;;5075286;27;102751;-74
2023/06/16 04:03:58;;;;;;;3.63;3.28;;;;;;;;;;5078689;27;98173;-74
2023/06/16 04:06:25;;;;;;;5.22;3.88;;;;;;;;;;5077812;27;100959;-75
2023/06/16 04:08:56;;;;;;;3.95;3.67;;;;;;;;;;5074075;27;101432;-73
2023/06/16 04:11:23;;;;;;;4.15;3.85;;;;;;;;;;5059306;27;98263;-73
2023/06/16 04:13:50;;;;;;;3.83;3.53;;;;;;;;;;5052961;27;100227;-74
2023/06/16 04:16:16;;;;;;;4.00;3.67;;;;;;;;;;5056785;27;101582;-74
2023/06/16 04:18:48;;;;;;;5.05;4.03;;;;;;;;;;5066482;27;100162;-74
2023/06/16 04:21:15;;;;;;;10.35;4.22;;;;;;;;;;5072757;27;100840;-74
2023/06/16 04:23:42;;;;;;;11.80;4.20;;;;;;;;;;5074097;27;98269;-74
2023/06/16 04:26:10;;;;;;;2.80;2.67;;;;;;;;;;5071450;27;101091;-74
2023/06/16 04:28:44;;;;;;;8.55;3.78;;;;;;;;;;5072220;27;101555;-74
2023/06/16 04:31:14;;;;;;;9.02;4.38;;;;;;;;;;5074390;27;98433;-74
2023/06/16 04:33:41;;;;;;;4.10;3.80;;;;;;;;;;5074061;27;100475;-73
2023/06/16 04:36:10;;;;;;;6.13;3.97;;;;;;;;;;5073305;27;100080;-73
2023/06/16 04:38:36;;;;;;;5.20;4.22;;;;;;;;;;5077408;27;98408;-72
2023/06/16 04:41:03;;;;;;;11.18;4.40;;;;;;;;;;5052306;27;102025;-72
2023/06/16 04:43:31;;;;;;;6.68;3.67;;;;;;;;;;5053619;27;98314;-74
2023/06/16 04:45:58;;;;;;;7.43;4.30;;;;;;;;;;5053575;27;100775;-72
2023/06/16 04:48:25;;;;;;;4.22;3.92;;;;;;;;;;5052579;27;101758;-72
2023/06/16 04:50:53;;;;;;;5.85;4.85;;;;;;;;;;5072251;27;98199;-73
2023/06/16 04:53:20;;;;;;;6.57;4.10;;;;;;;;;;5070469;27;100558;-73
2023/06/16 04:55:47;;;;;;;10.00;4.03;;;;;;;;;;5081486;27;98936;-73
2023/06/16 04:58:13;;;;;;;6.95;4.55;;;;;;;;;;5052890;27;98349;-73
2023/06/16 05:00:40;;;;;;;5.20;4.80;;;;;;;;;;5058449;27;100101;-73
2023/06/16 05:03:06;;;;;;;5.43;4.22;;;;;;;;;;5052385;27;98399;-73
2023/06/16 05:05:33;;;;;;;5.75;5.13;;;;;;;;;;5052372;27;100271;-73
2023/06/16 05:07:59;;;;;;;4.60;4.20;;;;;;;;;;5051927;27;100734;-73
2023/06/16 05:10:26;;;;;;;5.28;4.88;;;;;;;;;;5070410;27;98249;-73
2023/06/16 05:12:52;;;;;;;5.57;4.93;;;;;;;;;;5073309;27;100431;-73
2023/06/16 05:15:18;;;;;;;10.07;5.47;;;;;;;;;;5091509;27;98940;-73
2023/06/16 05:17:45;;;;;;;9.07;4.82;;;;;;;;;;5072027;27;98291;-73
2023/06/16 05:20:12;;;;;;;6.32;5.22;;;;;;;;;;5075974;27;100052;-73
2023/06/16 05:22:40;;;;;;;7.07;5.18;;;;;;;;;;5072987;27;98608;-73
2023/06/16 05:25:07;;;;;;;6.72;4.85;;;;;;;;;;5067070;27;100020;-73
2023/06/16 05:27:33;;;;;;;6.75;4.97;;;;;;;;;;5072245;27;101485;-73
2023/06/16 05:30:00;;;;;;;5.40;4.88;;;;;;;;;;5090508;27;99361;-74
2023/06/16 05:32:28;;;;;;;5.90;5.35;;;;;;;;;;5073194;27;101138;-73
2023/06/16 05:34:55;;;;;;;5.88;5.28;;;;;;;;;;5087644;27;98667;-74
2023/06/16 05:37:22;;;;;;;7.72;4.75;;;;;;;;;;5052221;27;98237;-73
2023/06/16 05:39:51;;;;;;;6.07;5.57;;;;;;;;;;5065755;27;100506;-73
2023/06/16 05:42:19;;;;;;;8.05;5.93;;;;;;;;;;5097872;27;98931;-74
2023/06/16 05:44:45;;;;;;;5.13;4.63;;;;;;;;;;5056889;27;98575;-74
2023/06/16 05:47:14;;;;;;;8.88;4.68;;;;;;;;;;5056327;27;101101;-74
2023/06/16 05:49:40;;;;;;;4.05;3.75;;;;;;;;;;5076030;27;98123;-73
2023/06/16 05:52:07;;;;;;;5.03;4.50;;;;;;;;;;5059954;27;98816;-74
2023/06/16 05:54:37;;;;;;;11.35;4.72;;;;;;;;;;5056439;27;100838;-74
2023/06/16 05:57:07;;;;;;;7.28;4.45;;;;;;;;;;5055822;27;97958;-74
2023/06/16 05:59:35;;;;;;;8.35;4.32;;;;;;;;;;5058687;27;98562;-74
2023/06/16 06:02:01;;;;;;;12.07;4.18;;;;;;;;;;5063272;27;101225;-73
2023/06/16 06:04:30;;;;;;;5.10;4.60;;;;;;;;;;5060414;27;98325;-73
2023/06/16 06:07:02;;;;;;;6.00;4.15;;;;;;;;;;5077834;27;99401;-73
2023/06/16 06:09:29;;;;;;;16.05;3.88;;;;;;;;;;5073988;27;98215;-73
2023/06/16 06:11:56;;;;;;;3.80;3.60;;;;;;;;;;5053458;27;101040;-73
2023/06/16 06:14:22;;;;;;;9.80;4.15;;;;;;;;;;5058278;27;101822;-72
2023/06/16 06:16:49;;;;;;;7.82;3.38;;;;;;;;;;5057156;27;100032;-72
2023/06/16 06:19:19;;;;;;;6.93;3.95;;;;;;;;;;5080108;27;100654;-72
2023/06/16 06:21:46;;;;;;;7.80;3.90;;;;;;;;;;5073912;27;101763;-72
2023/06/16 06:24:14;;;;;;;4.93;3.35;;;;;;;;;;5069983;27;98307;-73
2023/06/16 06:26:43;;;;;;;10.68;3.45;;;;;;;;;;5062775;27;99117;-72
2023/06/16 06:29:09;;;;;;;13.43;4.35;;;;;;;;;;5059164;27;98273;-73
2023/06/16 06:31:36;;;;;;;6.60;3.75;;;;;;;;;;5054066;27;98731;-72
2023/06/16 06:34:03;;;;;;;3.88;3.55;;;;;;;;;;5062683;27;100781;-72
2023/06/16 06:36:29;;;;;;;6.22;3.53;;;;;;;;;;5068064;27;98213;-72
2023/06/16 06:38:58;;;;;;;9.10;3.78;;;;;;;;;;5063132;27;101545;-72
2023/06/16 06:41:25;;;;;;;6.40;3.22;;;;;;;;;;5077502;27;99091;-72
2023/06/16 06:43:57;;;;;;;4.43;3.60;;;;;;;;;;5062852;27;99748;-73
2023/06/16 06:46:59;;;;;;;4.03;3.72;;;;;;;;;;5060565;27;99519;-72
2023/06/16 06:49:26;;;;;;;3.67;3.30;;;;;;;;;;5058088;27;100076;-72
2023/06/16 06:51:52;;;;;;;4.35;3.78;;;;;;;;;;5054802;27;100217;-72
2023/06/16 06:54:18;;;;;;;3.58;3.35;;;;;;;;;;5085748;27;99968;-72
2023/06/16 06:56:45;;;;;;;4.85;3.50;;;;;;;;;;5090288;27;99377;-72
2023/06/16 06:59:12;;;;;;;6.25;3.38;;;;;;;;;;5078918;27;99996;-73
2023/06/16 07:01:39;;;;;;;3.53;3.30;;;;;;;;;;5080913;27;99426;-73
2023/06/16 07:04:06;;;;;;;3.20;2.88;;;;;;;;;;5088260;27;98296;-73
2023/06/16 07:06:32;;;;;;;4.53;2.58;;;;;;;;;;5087326;27;99587;-72
2023/06/16 07:08:59;;;;;;;11.05;3.30;;;;;;;;;;5091308;27;99914;-73
2023/06/16 07:11:26;;;;;;;10.05;3.75;;;;;;;;;;5095176;27;98304;-73
2023/06/16 07:13:52;;;;;;;5.07;3.22;;;;;;;;;;5086357;27;100018;-73
2023/06/16 07:16:19;;;;;;;5.95;2.47;;;;;;;;;;5070421;27;98211;-72
2023/06/16 07:18:46;;;;;;;2.97;2.70;;;;;;;;;;5076164;27;98212;-72
2023/06/16 07:21:12;;;;;;;3.85;2.20;;;;;;;;;;5091428;27;98845;-72
2023/06/16 07:23:38;;;;;;;8.73;2.88;;;;;;;;;;5073214;27;98826;-73
2023/06/16 07:26:08;;;;;;;9.52;2.60;;;;;;;;;;5091985;27;99453;-73
2023/06/16 07:28:35;;;;;;;5.18;2.28;;;;;;;;;;5087365;27;99925;-72
2023/06/16 07:31:01;;;;;;;3.75;2.30;;;;;;;;;;5094178;27;98330;-72
2023/06/16 07:33:28;;;;;;;2.67;2.42;;;;;;;;;;5091283;27;98891;-72
2023/06/16 07:35:54;;;;;;;5.38;2.22;;;;;;;;;;5074203;27;98366;-73
2023/06/16 07:38:21;;;;;;;2.42;2.22;;;;;;;;;;5077714;27;99462;-70
2023/06/16 07:40:47;;;;;;;2.40;2.20;;;;;;;;;;5091260;27;100718;-73
2023/06/16 07:43:13;;;;;;;2.65;2.20;;;;;;;;;;5087348;27;98233;-72
2023/06/16 07:45:40;;;;;;;6.22;2.22;;;;;;;;;;5091024;27;100215;-73
2023/06/16 07:48:08;;;;;;;4.35;1.85;;;;;;;;;;5090044;27;98932;-73
2023/06/16 07:50:35;;;;;;;6.45;1.90;;;;;;;;;;5091263;27;98194;-73
2023/06/16 07:53:02;;;;;;;6.47;2.00;;;;;;;;;;5093885;27;101161;-73
2023/06/16 07:55:28;;;;;;;6.07;2.10;;;;;;;;;;5091411;27;98078;-73
2023/06/16 07:57:55;;;;;;;5.75;1.92;;;;;;;;;;5084994;27;99583;-72
2023/06/16 08:00:21;;;;;;;2.50;1.90;;;;;;;;;;5083680;27;100212;-72
2023/06/16 08:02:50;;;;;;;4.35;2.03;;;;;;;;;;5076136;27;98435;-72
2023/06/16 08:05:17;;;;;;;6.00;1.90;;;;;;;;;;5076966;27;99358;-72
2023/06/16 08:07:44;;;;;;;1.85;1.75;;;;;;;;;;5085918;27;100147;-72
2023/06/16 08:10:11;;;;;;;2.15;2.03;;;;;;;;;;5079696;27;98278;-72
2023/06/16 08:12:41;;;;;;;3.05;2.20;;;;;;;;;;5077095;27;98903;-72
2023/06/16 08:15:07;;;;;;;3.20;2.35;;;;;;;;;;5073687;27;99855;-71
2023/06/16 08:17:34;;;;;;;6.60;2.17;;;;;;;;;;5077948;27;99693;-72
2023/06/16 08:20:00;;;;;;;4.22;2.00;;;;;;;;;;5085201;27;99840;-73
2023/06/16 08:22:27;;;;;;;2.90;1.80;;;;;;;;;;5085678;27;99695;-73
2023/06/16 08:24:53;;;;;;;2.42;1.95;;;;;;;;;;5073297;27;99381;-72
2023/06/16 08:27:20;;;;;;;2.05;1.92;;;;;;;;;;5081837;27;99270;-72
2023/06/16 08:29:47;;;;;;;3.45;1.98;;;;;;;;;;5090284;27;98056;-73
2023/06/16 08:32:14;;;;;;;3.63;2.00;;;;;;;;;;5090904;27;99263;-73
2023/06/16 08:34:40;;;;;;;2.92;1.95;;;;;;;;;;5090472;27;100493;-73
2023/06/16 08:37:07;;;;;;;2.55;2.35;;;;;;;;;;5089956;27;98563;-73
2023/06/16 08:39:53;;;;;;;2.50;2.08;;;;;;;;;;5089758;27;99875;-71
2023/06/16 08:42:20;;;;;;;3.90;2.15;;;;;;;;;;5074710;27;98253;-72
2023/06/16 08:44:46;;;;;;;2.92;2.63;;;;;;;;;;5070884;27;99445;-72
2023/06/16 08:47:13;;;;;;;2.22;2.03;;;;;;;;;;5074441;27;100366;-73
2023/06/16 08:49:39;;;;;;;3.65;2.00;;;;;;;;;;5089624;27;98229;-73
2023/06/16 08:52:08;;;;;;;2.35;2.20;;;;;;;;;;5088506;27;99415;-73
2023/06/16 08:54:38;;;;;;;2.50;2.10;;;;;;;;;;5086332;27;100357;-75
2023/06/16 08:57:06;;;;;;;2.70;2.20;;;;;;;;;;5089569;27;98355;-76
2023/06/16 08:59:33;;;;;;;3.13;1.95;;;;;;;;;;5087166;27;98787;-76
2023/06/16 09:02:01;;;;;;;2.78;2.13;;;;;;;;;;5088888;27;98448;-76
2023/06/16 09:04:33;;;;;;;5.20;1.92;;;;;;;;;;5084213;27;99751;-74
2023/06/16 09:07:00;;;;;;;3.08;1.90;;;;;;;;;;5072701;27;99958;-73
2023/06/16 09:09:26;;;;;;;1.60;1.60;;;;;;;;;;5069496;27;98334;-73
2023/06/16 09:12:05;;;;;;;2.35;2.05;;;;;;;;;;5081398;27;99374;-72
2023/06/16 09:14:33;;;;;;;2.03;1.92;;;;;;;;;;5087326;27;99132;-72
2023/06/16 09:17:02;;;;;;;5.07;1.80;;;;;;;;;;5090135;27;98258;-73
2023/06/16 09:19:30;;;;;;;3.67;1.73;;;;;;;;;;5090392;27;98582;-72
2023/06/16 09:21:59;;;;;;;2.13;2.00;;;;;;;;;;5090001;27;98278;-73
2023/06/16 09:24:26;;;;;;;3.85;1.90;;;;;;;;;;5090804;27;99321;-73
2023/06/16 09:26:57;;;;;;;5.25;2.00;;;;;;;;;;5060302;27;99911;-73
2023/06/16 09:29:24;;;;;;;1.83;1.73;;;;;;;;;;5079217;27;98227;-73
2023/06/16 09:31:51;;;;;;;3.47;2.00;;;;;;;;;;5097327;27;99460;-72
2023/06/16 09:34:18;;;;;;;3.67;2.13;;;;;;;;;;5087110;27;99089;-72
2023/06/16 09:36:44;;;;;;;2.28;1.90;;;;;;;;;;5074050;27;97911;-73
2023/06/16 09:39:24;;;;;;;1.70;1.60;;;;;;;;;;5080607;27;99671;-73
2023/06/16 09:41:51;;;;;;;3.40;2.80;;;;;;;;;;5076725;27;98088;-73
2023/06/16 09:44:21;;;;;;;3.97;1.85;;;;;;;;;;5068738;27;98914;-73
2023/06/16 09:46:49;;;;;;;5.45;2.33;;;;;;;;;;5076500;27;99401;-73
2023/06/16 09:49:20;;;;;;;2.00;1.90;;;;;;;;;;5089877;27;98279;-73
2023/06/16 09:51:46;;;;;;;;;;;;;;;;;;5089431;27;98438;-73
2023/06/16 09:54:14;;;;;;;1.95;1.85;;;;;;;;;;5088133;27;108576;-73
2023/06/16 09:56:41;;;;;;;2.10;1.90;;;;;;;;;;5090047;27;98216;-73
2023/06/16 09:59:07;;;;;;;3.00;2.22;;;;;;;;;;5089563;27;98927;-73
2023/06/16 10:01:34;;;;;;;5.78;2.30;;;;;;;;;;5073873;27;99950;-73
2023/06/16 10:04:01;;;;;;;2.25;1.55;;;;;;;;;;5070677;27;98248;-73
2023/06/16 10:06:29;;;;;;;5.68;2.15;;;;;;;;;;5068924;27;100083;-74
2023/06/16 10:08:56;;;;;;;3.28;2.00;;;;;;;;;;5084721;27;98226;-73
2023/06/16 10:11:23;;;;;;;2.22;2.13;;;;;;;;;;5090742;27;99710;-73
2023/06/16 10:13:54;;;;;;;2.05;1.95;;;;;;;;;;5088528;27;100257;-73
2023/06/16 10:16:21;;;;;;;2.20;1.60;;;;;;;;;;5089705;27;98249;-72
2023/06/16 10:18:48;;;;;;;9.27;2.42;;;;;;;;;;5089135;27;98466;-72
2023/06/16 10:21:15;;;;;;;8.13;2.05;;;;;;;;;;5088535;27;98861;-72
2023/06/16 10:23:41;;;;;;;6.35;2.83;;;;;;;;;;5089063;27;98283;-72
2023/06/16 10:26:08;;;;;;;1.83;1.70;;;;;;;;;;5091758;27;98835;-73
2023/06/16 10:28:36;;;;;;;4.35;2.33;;;;;;;;;;5080018;27;98354;-73
2023/06/16 10:31:04;;;;;;;6.93;2.20;;;;;;;;;;5073491;27;99834;-72
2023/06/16 10:33:50;;;;;;;2.65;2.38;;;;;;;;;;5091999;27;100121;-73
2023/06/16 10:36:20;;;;;;;2.20;2.00;;;;;;;;;;5092840;27;97987;-73
2023/06/16 10:39:20;;;;;;;3.85;2.28;;;;;;;;;;5092519;27;98699;-73
2023/06/16 10:41:59;;;;;;;2.75;1.90;;;;;;;;;;5047111;27;100436;-73
2023/06/16 10:44:26;;;;;;;3.00;1.98;;;;;;;;;;5092617;27;98235;-73
2023/06/16 10:47:08;;;;;;;2.40;1.80;;;;;;;;;;5091306;27;98370;-73
2023/06/16 10:49:50;;;;;;;2.10;1.90;;;;;;;;;;5092070;27;98895;-74
2023/06/16 10:52:56;;;;;;;2.13;2.03;;;;;;;;;;5071245;27;98930;-73
2023/06/16 10:55:35;;;;;;;2.35;2.00;;;;;;;;;;4988366;28;98998;-73
2023/06/16 10:58:16;;;;;;;5.80;2.00;;;;;;;;;;4988754;28;98217;-73
2023/06/16 11:01:02;;;;;;;2.35;2.10;;;;;;;;;;5052057;27;99296;-73
2023/06/16 11:03:34;;;;;;;1.80;1.70;;;;;;;;;;5092065;27;99406;-73
2023/06/16 11:06:02;;;;;;;4.93;2.13;;;;;;;;;;5088107;27;98555;-73
2023/06/16 11:08:28;;;;;;;2.50;2.10;;;;;;;;;;5073543;27;98392;-73
2023/06/16 11:11:03;;;;;;;3.80;1.77;;;;;;;;;;5079030;27;99859;-73
2023/06/16 11:13:32;;;;;;;5.40;2.25;;;;;;;;;;5091529;27;97922;-72
2023/06/16 11:15:59;;;;;;;2.35;2.10;;;;;;;;;;5090603;27;99001;-72
2023/06/16 11:18:29;;;;;;;2.88;2.22;;;;;;;;;;5092472;27;98404;-73
2023/06/16 11:20:56;;;;;;;1.90;1.80;;;;;;;;;;5073187;27;99387;-73
2023/06/16 11:23:26;;;;;;;3.90;1.80;;;;;;;;;;5090578;27;99357;-72
2023/06/16 11:26:07;;;;;;;3.72;2.08;;;;;;;;;;5092587;27;98173;-74
2023/06/16 11:28:37;;;;;;;2.10;1.87;;;;;;;;;;5091631;27;99339;-74
2023/06/16 11:31:05;;;;;;;3.05;2.17;;;;;;;;;;5079886;27;100741;-74
2023/06/16 11:33:33;;;;;;;4.80;2.42;;;;;;;;;;5074845;27;98954;-74
2023/06/16 11:36:34;;;;;;;2.72;2.17;;;;;;;;;;5085321;27;99873;-74
2023/06/16 11:39:02;;;;;;;2.58;2.38;;;;;;;;;;5046937;27;99219;-74
2023/06/16 11:41:30;;;;;;;1.98;1.83;;;;;;;;;;5091716;27;99428;-72
2023/06/16 11:43:56;;;;;;;4.97;2.25;;;;;;;;;;5090813;27;99835;-72
2023/06/16 11:46:23;;;;;;;6.15;1.92;;;;;;;;;;5091375;27;98320;-75
2023/06/16 11:48:51;;;;;;;5.38;1.83;;;;;;;;;;5091340;27;98663;-74
2023/06/16 11:51:18;;;;;;;2.95;2.00;;;;;;;;;;5090613;27;100094;-74
2023/06/16 11:53:45;;;;;;;7.10;2.08;;;;;;;;;;5091014;27;98229;-75
2023/06/16 11:56:16;;;;;;;1.98;1.73;;;;;;;;;;5094771;27;99359;-74
2023/06/16 11:58:44;;;;;;;6.10;2.10;;;;;;;;;;5090977;27;98180;-74
2023/06/16 12:01:14;;;;;;;6.65;2.10;;;;;;;;;;5073866;27;98638;-73
2023/06/16 12:03:42;;;;;;;2.47;2.20;;;;;;;;;;5070272;27;99010;-74
2023/06/16 12:06:31;;;;;;;2.45;2.17;;;;;;;;;;5072364;27;98231;-73
2023/06/16 12:09:02;;;;;;;1.95;1.85;;;;;;;;;;5052998;27;98671;-74
2023/06/16 12:11:30;;;;;;;6.30;2.13;;;;;;;;;;5069394;27;100817;-74
2023/06/16 12:13:57;;;;;;;3.72;1.85;;;;;;;;;;5070639;27;98227;-73
2023/06/16 12:16:25;;;;;;;4.13;2.38;;;;;;;;;;5070864;27;99591;-73
2023/06/16 12:18:53;;;;;;;7.53;2.20;;;;;;;;;;5072891;27;99475;-72
2023/06/16 12:21:21;;;;;;;8.88;2.33;;;;;;;;;;5051895;27;98538;-75
2023/06/16 12:23:52;;;;;;;7.35;2.42;;;;;;;;;;5069939;27;98058;-74
2023/06/16 12:26:29;;;;;;;3.28;1.98;;;;;;;;;;5069586;27;98092;-73
2023/06/16 12:28:56;;;;;;;1.85;1.73;;;;;;;;;;5070565;27;99333;-72
2023/06/16 12:31:26;;;;;;;10.02;2.05;;;;;;;;;;5087900;27;100428;-74
2023/06/16 12:33:54;;;;;;;3.03;2.00;;;;;;;;;;5066942;27;98282;-72
2023/06/16 12:36:21;;;;;;;5.05;2.88;;;;;;;;;;5069742;27;99510;-73
2023/06/16 12:38:48;;;;;;;3.90;2.05;;;;;;;;;;5069316;27;100584;-72
2023/06/16 12:41:15;;;;;;;2.10;2.00;;;;;;;;;;5073521;27;99106;-74
2023/06/16 12:43:52;;;;;;;2.33;2.13;;;;;;;;;;5073546;27;99132;-74
2023/06/16 12:46:19;;;;;;;6.97;2.25;;;;;;;;;;5084782;27;98477;-74
2023/06/16 12:48:45;;;;;;;2.30;2.10;;;;;;;;;;5089646;27;98427;-74
2023/06/16 12:51:12;;;;;;;4.28;2.03;;;;;;;;;;5090286;27;100211;-73
2023/06/16 12:53:44;;;;;;;3.72;1.90;;;;;;;;;;5090300;27;98598;-73
2023/06/16 12:56:11;;;;;;;4.10;2.15;;;;;;;;;;5089766;27;98577;-74
2023/06/16 12:58:38;;;;;;;2.30;2.20;;;;;;;;;;5081809;27;99736;-74
2023/06/16 13:01:05;;;;;;;2.85;2.05;;;;;;;;;;5088803;27;98207;-74
2023/06/16 13:03:32;;;;;;;2.35;2.15;;;;;;;;;;5094282;27;99310;-74
2023/06/16 13:05:58;;;;;;;4.10;2.42;;;;;;;;;;5089074;27;98229;-74
2023/06/16 13:08:26;;;;;;;2.30;2.00;;;;;;;;;;5088976;27;98245;-73
2023/06/16 13:10:52;;;;;;;2.47;1.88;;;;;;;;;;5087967;27;99411;-72
2023/06/16 13:13:19;;;;;;;2.63;2.20;;;;;;;;;;5090213;27;98276;-72
2023/06/16 13:15:46;;;;;;;1.95;1.80;;;;;;;;;;5076351;27;98808;-73
2023/06/16 13:18:12;;;;;;;2.47;2.13;;;;;;;;;;5084454;27;100227;-72
2023/06/16 13:20:39;;;;;;;7.47;2.17;;;;;;;;;;5089438;27;98244;-73
2023/06/16 13:23:05;;;;;;;4.35;2.47;;;;;;;;;;5090214;27;99685;-74
2023/06/16 13:25:32;;;;;;;8.23;2.10;;;;;;;;;;5092630;27;100120;-74
2023/06/16 13:27:58;;;;;;;2.05;1.80;;;;;;;;;;5075697;27;98544;-73
2023/06/16 13:30:25;;;;;;;4.35;2.05;;;;;;;;;;5074909;27;99289;-74
2023/06/16 13:32:51;;;;;;;2.65;2.15;;;;;;;;;;5090218;27;98210;-74
2023/06/16 13:35:18;;;;;;;2.40;1.92;;;;;;;;;;5076497;27;99948;-73
2023/06/16 13:37:45;;;;;;;2.28;2.17;;;;;;;;;;5083451;27;99930;-73
2023/06/16 13:40:11;;;;;;;4.63;2.30;;;;;;;;;;5089133;27;98237;-73
2023/06/16 13:42:38;;;;;;;4.47;2.08;;;;;;;;;;5056458;27;100191;-73
2023/06/16 13:45:05;;;;;;;2.28;2.10;;;;;;;;;;5088277;27;99894;-73
2023/06/16 13:47:31;;;;;;;3.13;2.38;;;;;;;;;;5090101;27;100768;-74
2023/06/16 13:49:57;;;;;;;2.78;2.08;;;;;;;;;;5088257;27;99969;-73
2023/06/16 13:52:24;;;;;;;3.35;1.95;;;;;;;;;;5089991;27;98339;-73
2023/06/16 13:54:51;;;;;;;2.35;2.15;;;;;;;;;;5089475;27;98533;-73
2023/06/16 13:57:17;;;;;;;2.08;1.98;;;;;;;;;;5088383;27;99399;-73
2023/06/16 13:59:43;;;;;;;5.65;1.77;;;;;;;;;;5088374;27;98256;-73
2023/06/16 14:02:10;;;;;;;2.30;2.20;;;;;;;;;;5091690;27;99660;-73
2023/06/16 14:04:40;;;;;;;3.20;2.42;;;;;;;;;;5091111;27;98581;-73
2023/06/16 14:07:06;;;;;;;1.92;1.83;;;;;;;;;;5096559;27;98363;-73
2023/06/16 14:09:32;;;;;;;2.53;2.33;;;;;;;;;;5090933;27;98927;-74
2023/06/16 14:11:59;;;;;;;4.15;2.58;;;;;;;;;;5091821;27;98576;-74
2023/06/16 14:14:25;;;;;;;2.35;1.83;;;;;;;;;;5091964;27;98541;-72
2023/06/16 14:16:53;;;;;;;2.13;2.03;;;;;;;;;;5087656;27;99356;-72
2023/06/16 14:19:20;;;;;;;1.98;1.88;;;;;;;;;;5091483;27;98094;-72
2023/06/16 14:21:47;;;;;;;10.85;1.98;;;;;;;;;;5093019;27;99536;-74
2023/06/16 14:24:13;;;;;;;4.18;1.90;;;;;;;;;;5092035;27;99512;-73
2023/06/16 14:26:40;;;;;;;2.13;1.90;;;;;;;;;;5093552;27;98113;-74
2023/06/16 14:29:06;;;;;;;1.75;1.67;;;;;;;;;;5088320;27;99585;-74
2023/06/16 14:31:33;;;;;;;6.88;2.25;;;;;;;;;;5095289;27;98425;-74
2023/06/16 14:33:59;;;;;;;2.08;1.92;;;;;;;;;;5092737;27;99498;-73
2023/06/16 14:36:26;;;;;;;3.97;2.00;;;;;;;;;;5089099;27;99009;-73
2023/06/16 14:38:52;;;;;;;2.45;2.22;;;;;;;;;;5091504;27;98409;-72
2023/06/16 14:41:19;;;;;;;3.38;3.17;;;;;;;;;;5092805;27;99986;-73
2023/06/16 14:43:45;;;;;;;2.33;2.00;;;;;;;;;;5092068;27;99126;-72
2023/06/16 14:46:12;;;;;;;2.15;2.05;;;;;;;;;;5091147;27;98268;-72
2023/06/16 14:48:38;;;;;;;2.78;1.60;;;;;;;;;;5074400;27;99398;-73